Time;durP1;ratioP1;P1;durP2;ratioP2;P2;SDS_P1;SDS_P2;PMS_P1;PMS_P2;Temp;Humidity;BMP_temperature;BMP_pressure;BME280_temperature;BME280_humidity;BME280_pressure;Samples;Min_cycle;Max_cycle;Signal;HPM_P1;HPM_P2
2023/04/02 00:01:00;;;;;;;11.98;8.00;;;;;;;-146.27;82.14;83416.84;5098972;27;20039;-70
2023/04/02 00:03:52;;;;;;;10.32;6.97;;;;;;;-146.27;80.01;83328.44;5081542;28;20031;-70
2023/04/02 00:06:31;;;;;;;17.75;8.38;;;;;;;-146.27;80.67;83420.88;5083953;28;20036;-69
2023/04/02 00:09:01;;;;;;;12.50;7.75;;;;;;;-146.27;79.31;83372.63;5073178;28;20492;-70
2023/04/02 00:11:40;;;;;;;13.32;7.68;;;;;;;-146.27;79.12;83388.72;5073445;28;20055;-68
2023/04/02 00:14:32;;;;;;;14.80;7.72;;;;;;;-146.27;79.58;83396.75;5081677;28;20086;-69
2023/04/02 00:17:00;;;;;;;14.82;8.48;;;;;;;-146.27;78.90;83376.66;5083096;28;20020;-69
2023/04/02 00:19:35;;;;;;;15.93;8.77;;;;;;;-146.27;80.32;83406.78;5088558;28;20028;-68
2023/04/02 00:22:02;;;;;;;15.15;8.35;;;;;;;-146.27;79.34;83364.59;5086364;28;20116;-68
2023/04/02 00:24:27;;;;;;;13.63;8.57;;;;;;;-146.27;78.17;83352.53;5089786;28;20364;-68
2023/04/02 00:26:54;;;;;;;11.68;7.53;;;;;;;-146.27;77.77;83354.56;5091281;28;20031;-68
2023/04/02 00:29:20;;;;;;;15.38;8.80;;;;;;;-146.27;78.64;83440.94;5085543;28;20028;-69
2023/04/02 00:31:51;;;;;;;15.82;8.15;;;;;;;-146.27;78.57;83392.72;5082430;28;20507;-69
2023/04/02 00:34:36;;;;;;;18.10;8.55;;;;;;;-146.27;78.07;83342.50;5092031;28;20028;-70
2023/04/02 00:37:02;;;;;;;17.13;7.80;;;;;;;-146.27;78.92;83394.75;5086034;28;20043;-69
2023/04/02 00:39:31;;;;;;;16.60;8.45;;;;;;;-146.27;78.02;83348.53;5087392;28;20063;-70
2023/04/02 00:42:04;;;;;;;19.80;8.45;;;;;;;-146.27;78.49;83388.72;5081012;28;20112;-69
2023/04/02 00:44:41;;;;;;;16.63;8.60;;;;;;;-146.27;78.43;83378.66;5084305;28;20019;-69
2023/04/02 00:47:16;;;;;;;17.52;8.65;;;;;;;-146.27;78.41;83412.81;5079077;28;20119;-70
2023/04/02 00:49:42;;;;;;;12.82;7.18;;;;;;;-146.27;78.70;83442.97;5077752;28;20066;-69
2023/04/02 00:52:12;;;;;;;15.55;7.55;;;;;;;-146.27;77.89;83440.94;5080473;28;20051;-69
2023/04/02 00:54:46;;;;;;;13.88;7.97;;;;;;;-146.27;77.86;83485.16;5091645;28;20035;-69
2023/04/02 00:57:16;;;;;;;15.27;7.00;;;;;;;-146.27;78.05;83451.00;5090408;28;20090;-70
2023/04/02 00:59:53;;;;;;;12.23;7.15;;;;;;;-146.27;79.52;83444.97;5081390;28;20046;-70
2023/04/02 01:02:25;;;;;;;11.43;7.25;;;;;;;-146.27;80.07;83473.09;5074007;28;20058;-69
2023/04/02 01:05:01;;;;;;;13.00;7.28;;;;;;;-146.27;78.60;83461.06;5082976;28;20420;-70
2023/04/02 01:07:58;;;;;;;12.70;6.95;;;;;;;-146.27;78.03;83430.91;5097892;28;20028;-69
2023/04/02 01:10:54;;;;;;;13.38;6.70;;;;;;;-146.27;77.68;83404.78;5091632;28;20127;-69
2023/04/02 01:13:23;;;;;;;10.07;6.63;;;;;;;-146.27;76.78;83400.78;5086373;28;20060;-69
2023/04/02 01:15:58;;;;;;;12.50;6.63;;;;;;;-146.27;78.14;83457.03;5071936;28;20025;-69
2023/04/02 01:18:50;;;;;;;11.68;7.55;;;;;;;-146.27;77.97;83428.91;5089549;28;20521;-69
2023/04/02 01:21:32;;;;;;;9.18;6.30;;;;;;;-146.27;77.30;83465.06;5090037;28;20066;-69
2023/04/02 01:24:00;;;;;;;9.68;6.70;;;;;;;-146.27;78.05;83469.09;5084311;28;20028;-69
2023/04/02 01:26:43;;;;;;;9.10;5.95;;;;;;;-146.27;78.50;83517.31;5092157;28;20032;-69
2023/04/02 01:29:19;;;;;;;15.77;7.10;;;;;;;-146.27;76.47;83436.94;5090744;28;20453;-69
2023/04/02 01:31:46;;;;;;;11.18;6.25;;;;;;;-146.27;75.17;83412.81;5091897;28;20035;-68
2023/04/02 01:34:17;;;;;;;11.95;6.45;;;;;;;-146.27;76.10;83465.06;5089460;28;20029;-69
2023/04/02 01:36:55;;;;;;;13.70;6.38;;;;;;;-146.27;76.21;83412.81;5077197;28;20472;-68
2023/04/02 01:39:32;;;;;;;11.93;6.35;;;;;;;-146.27;76.81;83394.75;5093490;28;20044;-68
2023/04/02 01:42:10;;;;;;;9.20;6.75;;;;;;;-146.27;76.14;83416.84;5087458;28;20021;-69
2023/04/02 01:44:43;;;;;;;12.93;6.28;;;;;;;-146.27;75.95;83442.97;5075521;28;20032;-69
2023/04/02 01:47:15;;;;;;;13.38;6.32;;;;;;;-146.27;76.34;83449.00;5088469;28;20067;-70
2023/04/02 01:49:42;;;;;;;8.82;5.60;;;;;;;-146.27;77.10;83493.19;5082781;28;20475;-68
2023/04/02 01:52:15;;;;;;;9.88;5.97;;;;;;;-146.27;77.40;83420.88;5089486;28;20020;-67
2023/04/02 01:54:41;;;;;;;9.32;5.90;;;;;;;-146.27;78.07;83571.56;5086021;28;20071;-68
2023/04/02 01:57:07;;;;;;;12.43;6.32;;;;;;;-146.27;76.03;83444.97;5087925;28;20015;-68
2023/04/02 01:59:34;;;;;;;11.73;6.05;;;;;;;-146.27;77.66;83491.19;5093676;28;20098;-68
2023/04/02 02:02:11;;;;;;;11.27;5.40;;;;;;;-146.27;76.82;83529.38;5076021;28;20047;-68
2023/04/02 02:04:36;;;;;;;10.50;5.55;;;;;;;-146.27;78.02;83521.34;5082169;28;20107;-69
2023/04/02 02:07:03;;;;;;;9.63;5.78;;;;;;;-146.27;77.95;83541.41;5087846;28;20111;-68
2023/04/02 02:09:34;;;;;;;9.80;5.75;;;;;;;-146.27;78.24;83633.84;5087777;28;20097;-68
2023/04/02 02:12:01;;;;;;;9.65;5.45;;;;;;;-146.27;76.87;83563.53;5079126;28;20029;-68
2023/04/02 02:14:28;;;;;;;9.20;5.68;;;;;;;-146.27;77.52;83585.63;5095461;28;20670;-69
2023/04/02 02:16:56;;;;;;;10.50;5.65;;;;;;;-146.27;77.08;83579.59;5088956;28;20388;-69
2023/04/02 02:19:32;;;;;;;7.90;5.75;;;;;;;-146.27;76.36;83545.44;5085725;28;20025;-69
2023/04/02 02:22:14;;;;;;;9.23;6.03;;;;;;;-146.27;75.58;83559.50;5085448;28;20494;-69
2023/04/02 02:24:41;;;;;;;10.00;5.45;;;;;;;-146.27;76.10;83537.41;5093830;28;20102;-69
2023/04/02 02:27:06;;;;;;;12.93;4.78;;;;;;;-146.27;77.20;83569.56;5086058;28;20024;-69
2023/04/02 02:29:35;;;;;;;13.23;5.70;;;;;;;-146.27;77.44;83567.53;5093985;28;20502;-69
2023/04/02 02:32:02;;;;;;;8.75;5.38;;;;;;;-146.27;76.91;83559.50;5089556;28;20393;-69
2023/04/02 02:34:37;;;;;;;14.20;5.03;;;;;;;-146.27;75.71;83521.34;5090794;28;20028;-69
2023/04/02 02:37:33;;;;;;;8.35;5.00;;;;;;;-146.27;76.71;83567.53;5091599;28;20023;-69
2023/04/02 02:40:03;;;;;;;10.07;5.30;;;;;;;-146.27;77.92;83545.44;5081746;28;20119;-69
2023/04/02 02:42:37;;;;;;;9.30;5.78;;;;;;;-146.27;77.49;83549.47;5092194;28;20056;-69
2023/04/02 02:45:11;;;;;;;10.65;5.65;;;;;;;-146.27;76.09;83533.38;5094311;28;20282;-69
2023/04/02 02:47:40;;;;;;;19.33;6.30;;;;;;;-146.27;76.16;83511.28;5084458;28;20017;-70
2023/04/02 02:50:11;;;;;;;9.30;5.78;;;;;;;-146.27;75.72;83519.31;5094829;28;20032;-69
2023/04/02 02:52:38;;;;;;;11.90;6.07;;;;;;;-146.27;76.26;83533.38;5092181;28;20028;-70
2023/04/02 02:55:10;;;;;;;11.00;6.18;;;;;;;-146.27;76.88;83521.34;5093757;28;20040;-69
2023/04/02 02:57:40;;;;;;;13.25;6.15;;;;;;;-146.27;76.59;83553.47;5093346;28;20024;-69
2023/04/02 03:00:08;;;;;;;11.60;5.82;;;;;;;-146.27;75.65;83549.47;5093860;28;20024;-69
2023/04/02 03:02:37;;;;;;;10.93;6.00;;;;;;;-146.27;75.54;83519.31;5078386;28;20545;-70
2023/04/02 03:05:03;;;;;;;9.82;5.97;;;;;;;-146.27;75.93;83593.66;5081904;28;20016;-69
2023/04/02 03:07:30;;;;;;;9.60;6.05;;;;;;;-146.27;76.59;83593.66;5085226;28;20527;-70
2023/04/02 03:10:32;;;;;;;11.18;5.43;;;;;;;-146.27;76.03;83585.63;5093372;28;20043;-70
2023/04/02 03:13:21;;;;;;;9.05;5.35;;;;;;;-146.27;74.96;83537.41;5081627;28;20032;-69
2023/04/02 03:15:56;;;;;;;11.63;5.30;;;;;;;-146.27;74.99;83621.81;5107926;28;20047;-69
2023/04/02 03:18:21;;;;;;;8.88;5.85;;;;;;;-146.27;75.72;83579.59;5084015;28;20051;-69
2023/04/02 03:20:51;;;;;;;11.35;5.50;;;;;;;-146.27;76.30;83609.75;5088277;28;20016;-69
2023/04/02 03:23:22;;;;;;;8.57;5.65;;;;;;;-146.27;74.62;83565.53;5087662;28;20032;-69
2023/04/02 03:25:57;;;;;;;9.07;5.47;;;;;;;-146.27;75.56;83561.53;5073484;28;20024;-69
2023/04/02 03:28:29;;;;;;;8.10;5.57;;;;;;;-146.27;74.58;83595.69;5091400;28;20035;-69
2023/04/02 03:31:22;;;;;;;10.43;5.85;;;;;;;-146.27;75.58;83627.81;5088429;28;20025;-69
2023/04/02 03:33:54;;;;;;;14.27;6.18;;;;;;;-146.27;74.38;83599.69;5089424;28;20430;-69
2023/04/02 03:36:42;;;;;;;9.65;6.45;;;;;;;-146.27;74.79;83555.50;5093359;28;20043;-69
2023/04/02 03:39:19;;;;;;;13.88;6.90;;;;;;;-146.27;73.89;83547.44;5077258;28;20119;-70
2023/04/02 03:41:57;;;;;;;12.95;6.65;;;;;;;-146.27;74.92;83569.56;5083559;28;20056;-69
2023/04/02 03:44:42;;;;;;;10.35;5.88;;;;;;;-146.27;74.65;83621.81;5092856;28;20491;-69
2023/04/02 03:47:27;;;;;;;12.13;6.72;;;;;;;-146.27;74.83;83593.66;5089429;28;20028;-70
2023/04/02 03:50:19;;;;;;;6.80;5.10;;;;;;;-146.27;74.25;83617.78;5093138;28;20391;-68
2023/04/02 03:52:45;;;;;;;9.73;5.40;;;;;;;-146.27;74.69;83589.66;5075178;28;20463;-68
2023/04/02 03:55:16;;;;;;;7.20;5.00;;;;;;;-146.27;76.14;83633.84;5072910;28;20029;-68
2023/04/02 03:57:44;;;;;;;7.45;5.38;;;;;;;-146.27;75.34;83615.78;5084407;28;20426;-69
2023/04/02 04:00:36;;;;;;;9.68;5.35;;;;;;;-146.27;75.34;83635.88;5085642;28;20028;-69
2023/04/02 04:03:24;;;;;;;8.10;5.78;;;;;;;-146.27;75.13;83567.53;5077954;28;20062;-69
2023/04/02 04:05:55;;;;;;;9.55;5.68;;;;;;;-146.27;74.32;83571.56;5092884;28;20032;-69
2023/04/02 04:08:26;;;;;;;11.35;5.28;;;;;;;-146.27;75.03;83575.59;5089601;28;20036;-69
2023/04/02 04:10:56;;;;;;;9.57;5.78;;;;;;;-146.27;74.56;83557.50;5090376;28;20028;-69
2023/04/02 04:13:31;;;;;;;11.07;5.85;;;;;;;-146.27;74.99;83571.56;5091323;28;20024;-68
2023/04/02 04:16:05;;;;;;;9.52;6.22;;;;;;;-146.27;74.78;83573.56;5078201;28;20051;-69
2023/04/02 04:18:45;;;;;;;9.77;5.97;;;;;;;-146.27;76.63;83603.72;5076215;28;20032;-69
2023/04/02 04:21:28;;;;;;;12.25;6.50;;;;;;;-146.27;75.54;83571.56;5083372;28;20027;-69
2023/04/02 04:23:55;;;;;;;8.43;5.70;;;;;;;-146.27;75.73;83625.81;5091483;28;20120;-69
2023/04/02 04:26:48;;;;;;;9.60;6.35;;;;;;;-146.27;75.08;83668.00;5090626;28;20353;-69
2023/04/02 04:29:44;;;;;;;11.63;6.20;;;;;;;-146.27;74.88;83662.00;5072440;28;20369;-69
2023/04/02 04:32:56;;;;;;;8.80;5.55;;;;;;;-146.27;75.44;83682.09;5077311;28;20163;-69
2023/04/02 04:35:31;;;;;;;7.40;5.63;;;;;;;-146.27;75.39;83690.13;5063343;28;20056;-69
2023/04/02 04:38:10;;;;;;;10.20;5.53;;;;;;;-146.27;75.82;83706.19;5078743;28;20363;-69
2023/04/02 04:40:42;;;;;;;10.93;5.65;;;;;;;-146.27;75.86;83706.19;5082982;28;20492;-69
2023/04/02 04:43:18;;;;;;;9.90;6.38;;;;;;;-146.27;76.14;83676.06;5090970;28;20037;-69
2023/04/02 04:45:45;;;;;;;7.40;5.30;;;;;;;-146.27;75.11;83653.94;5091709;28;20125;-68
2023/04/02 04:48:20;;;;;;;10.40;5.80;;;;;;;-146.27;74.04;83666.00;5084730;28;20036;-69
2023/04/02 04:50:58;;;;;;;8.90;5.50;;;;;;;-146.27;73.51;83688.09;5074855;28;20479;-68
2023/04/02 04:53:26;;;;;;;8.63;5.10;;;;;;;-146.27;74.40;83666.00;5077676;28;20059;-69
2023/04/02 04:55:58;;;;;;;8.50;4.70;;;;;;;-146.27;75.36;83736.34;5090773;28;20024;-69
2023/04/02 04:58:34;;;;;;;10.05;5.63;;;;;;;-146.27;74.00;83678.06;5078243;28;20028;-69
2023/04/02 05:01:12;;;;;;;10.70;5.10;;;;;;;-146.27;73.62;83668.00;5077991;28;20116;-69
2023/04/02 05:03:57;;;;;;;10.27;5.40;;;;;;;-146.27;74.99;83730.31;5080657;28;20036;-69
2023/04/02 05:06:38;;;;;;;8.60;5.03;;;;;;;-146.27;75.14;83752.41;5086897;28;20032;-69
2023/04/02 05:09:29;;;;;;;5.78;4.40;;;;;;;-146.27;74.84;83690.13;5081769;28;20406;-69
2023/04/02 05:12:16;;;;;;;6.30;4.53;;;;;;;-146.27;75.55;83754.44;5090601;28;20020;-70
2023/04/02 05:15:23;;;;;;;7.53;4.43;;;;;;;-146.27;75.92;83852.88;5092023;28;20036;-69
2023/04/02 05:18:10;;;;;;;7.40;4.70;;;;;;;-146.27;75.52;83830.78;5090722;28;20492;-69
2023/04/02 05:20:51;;;;;;;7.00;4.78;;;;;;;-146.27;75.33;83746.38;5090114;28;20024;-69
2023/04/02 05:23:23;;;;;;;9.05;5.20;;;;;;;-146.27;75.15;83806.66;5087485;28;20024;-70
2023/04/02 05:26:05;;;;;;;8.90;4.95;;;;;;;-146.27;75.54;83766.47;5071834;28;20028;-69
2023/04/02 05:28:44;;;;;;;12.30;5.57;;;;;;;-146.27;73.94;83796.63;5081612;28;20028;-69
2023/04/02 05:31:33;;;;;;;6.95;5.00;;;;;;;-146.27;75.04;83748.41;5088048;28;20158;-69
2023/04/02 05:33:59;;;;;;;7.97;4.60;;;;;;;-146.27;73.19;83692.13;5072560;28;20400;-69
2023/04/02 05:36:28;;;;;;;7.50;5.55;;;;;;;-146.27;73.92;83710.22;5074408;28;20024;-69
2023/04/02 05:38:55;;;;;;;10.13;4.72;;;;;;;-146.27;74.15;83738.34;5079905;28;20028;-73
2023/04/02 05:41:43;;;;;;;8.25;5.53;;;;;;;-146.27;75.74;83786.56;5082021;28;20107;-70
2023/04/02 05:44:21;;;;;;;9.90;5.53;;;;;;;-146.27;73.93;83774.53;5073757;28;20020;-71
2023/04/02 05:46:52;;;;;;;7.28;4.68;;;;;;;-146.27;72.45;83790.59;5075943;28;20025;-72
2023/04/02 05:49:28;;;;;;;7.95;4.60;;;;;;;-146.27;71.33;83808.69;5083600;28;20107;-72
2023/04/02 05:52:00;;;;;;;6.50;4.75;;;;;;;-146.27;71.53;83854.91;5082732;28;20055;-73
2023/04/02 05:54:37;;;;;;;6.82;4.45;;;;;;;-146.27;71.65;83862.94;5080370;28;20035;-71
2023/04/02 05:57:10;;;;;;;8.07;4.13;;;;;;;-146.27;72.57;83881.03;5083930;28;20107;-71
2023/04/02 05:59:46;;;;;;;7.90;4.38;;;;;;;-146.27;71.53;83826.75;5077330;28;20518;-72
2023/04/02 06:02:40;;;;;;;5.47;4.00;;;;;;;-146.27;70.50;83774.53;5084774;28;20039;-72
2023/04/02 06:05:19;;;;;;;7.28;4.90;;;;;;;-146.27;70.39;83854.91;5090334;28;20020;-72
2023/04/02 06:07:54;;;;;;;8.10;4.13;;;;;;;-146.27;69.93;83824.75;5092623;28;20052;-71
2023/04/02 06:10:21;;;;;;;7.05;4.40;;;;;;;-146.27;69.00;83830.78;5094104;28;20110;-71
2023/04/02 06:12:53;;;;;;;7.45;4.30;;;;;;;-146.27;69.48;83907.16;5094687;28;21925;-71
2023/04/02 06:15:21;;;;;;;6.72;4.75;;;;;;;-146.27;70.46;83923.22;5084641;28;20029;-71
2023/04/02 06:17:52;;;;;;;9.38;4.10;;;;;;;-146.27;71.28;83947.34;5089895;28;20016;-71
2023/04/02 06:20:19;;;;;;;8.93;4.05;;;;;;;-146.27;70.66;83911.16;5089677;28;20035;-71
2023/04/02 06:22:50;;;;;;;8.68;3.92;;;;;;;-146.27;71.17;83969.44;5080370;28;20025;-71
2023/04/02 06:25:19;;;;;;;11.13;4.53;;;;;;;-146.27;69.04;83864.94;5091020;28;20028;-71
2023/04/02 06:27:46;;;;;;;9.13;4.38;;;;;;;-146.27;68.96;83931.25;5085218;28;20107;-71
2023/04/02 06:30:23;;;;;;;9.13;4.22;;;;;;;-146.27;67.74;83879.00;5082890;28;20035;-71
2023/04/02 06:32:49;;;;;;;7.32;4.38;;;;;;;-146.27;68.17;83923.22;5078860;28;20036;-71
2023/04/02 06:35:14;;;;;;;9.43;4.03;;;;;;;-146.27;69.33;83911.16;5076855;28;20029;-72
2023/04/02 06:37:44;;;;;;;8.80;3.80;;;;;;;-146.27;66.92;83798.63;5089682;28;20423;-71
2023/04/02 06:40:47;;;;;;;5.45;3.95;;;;;;;-146.27;68.24;83891.06;5094975;28;20024;-71
2023/04/02 06:43:36;;;;;;;8.13;3.83;;;;;;;-146.27;68.94;83911.16;5091814;28;20097;-72
2023/04/02 06:46:20;;;;;;;6.63;3.78;;;;;;;-146.27;67.98;83872.97;5095128;28;20024;-71
2023/04/02 06:48:49;;;;;;;6.90;3.80;;;;;;;-146.27;68.07;83911.16;5087692;28;20980;-72
2023/04/02 06:51:19;;;;;;;9.55;3.67;;;;;;;-146.27;68.15;83971.47;5077973;28;20033;-70
2023/04/02 06:53:49;;;;;;;6.03;4.00;;;;;;;-146.27;65.31;83838.81;5080753;28;20116;-71
2023/04/02 06:56:30;;;;;;;5.07;3.42;;;;;;;-146.27;65.63;83883.03;5089552;28;20395;-71
2023/04/02 06:58:57;;;;;;;7.13;3.53;;;;;;;-146.27;65.54;83850.88;5092535;28;20030;-70
2023/04/02 07:01:27;;;;;;;7.75;3.35;;;;;;;-146.27;65.90;83919.19;5081560;28;20109;-73
2023/04/02 07:03:53;;;;;;;5.72;3.22;;;;;;;-146.27;66.97;83885.03;5090880;28;20036;-70
2023/04/02 07:06:20;;;;;;;10.75;4.03;;;;;;;-146.27;67.50;83919.19;5092023;28;20180;-71
2023/04/02 07:08:46;;;;;;;7.88;3.15;;;;;;;-146.27;66.22;83925.22;5093464;28;20055;-71
2023/04/02 07:11:17;;;;;;;8.60;3.47;;;;;;;-146.27;64.79;83903.13;5093329;28;20065;-71
2023/04/02 07:13:43;;;;;;;5.55;3.38;;;;;;;-146.27;65.53;83951.34;5084334;28;20241;-71
2023/04/02 07:16:18;;;;;;;7.05;3.70;;;;;;;-146.27;65.00;83854.91;5084580;28;20032;-71
2023/04/02 07:18:44;;;;;;;6.45;3.50;;;;;;;-146.27;64.47;83887.06;5085186;28;20034;-70
2023/04/02 07:21:09;;;;;;;8.73;3.67;;;;;;;-146.27;64.64;83875.00;5082091;28;20039;-70
2023/04/02 07:23:35;;;;;;;9.23;3.55;;;;;;;-146.27;65.34;83959.41;5079539;28;20020;-69
2023/04/02 07:26:01;;;;;;;7.07;3.20;;;;;;;-146.27;64.92;83931.25;5082043;28;20028;-69
2023/04/02 07:28:27;;;;;;;9.75;3.30;;;;;;;-146.27;65.99;83955.38;5085744;28;20077;-69
2023/04/02 07:30:53;;;;;;;10.52;4.22;;;;;;;-146.27;66.18;83903.13;5083812;28;20117;-69
2023/04/02 07:33:22;;;;;;;9.35;3.72;;;;;;;-146.27;66.00;83947.34;5084851;28;20039;-69
2023/04/02 07:35:48;;;;;;;11.77;3.45;;;;;;;-146.27;66.64;83931.25;5081673;28;20035;-69
2023/04/02 07:38:14;;;;;;;10.73;3.83;;;;;;;-146.27;66.45;83907.16;5084100;28;20104;-69
2023/04/02 07:40:40;;;;;;;6.00;3.60;;;;;;;-146.27;67.83;83983.50;5083094;28;20043;-69
2023/04/02 07:43:06;;;;;;;6.55;3.50;;;;;;;-146.27;67.29;83903.13;5073690;28;20115;-70
2023/04/02 07:45:31;;;;;;;6.43;3.40;;;;;;;-146.27;66.43;83935.28;5084461;28;20416;-70
2023/04/02 07:47:57;;;;;;;7.63;2.55;;;;;;;-146.27;65.51;83852.88;5085664;28;20478;-71
2023/04/02 07:50:23;;;;;;;5.07;2.70;;;;;;;-146.27;66.12;83905.13;5087014;28;20032;-70
2023/04/02 07:52:49;;;;;;;9.48;3.45;;;;;;;-146.27;66.37;83854.91;5081364;28;20690;-70
2023/04/02 07:55:15;;;;;;;3.67;2.67;;;;;;;-146.27;66.31;83868.97;5079081;28;20376;-69
2023/04/02 07:57:48;;;;;;;6.43;3.25;;;;;;;-146.27;65.72;83818.72;5080757;28;20530;-70
2023/04/02 08:00:14;;;;;;;5.13;2.65;;;;;;;-146.27;65.67;83828.78;5081005;28;20028;-70
2023/04/02 08:02:40;;;;;;;7.05;3.22;;;;;;;-146.27;65.13;83895.09;5082941;28;20025;-70
2023/04/02 08:05:06;;;;;;;10.45;2.58;;;;;;;-146.27;64.90;83925.22;5092695;28;20038;-71
2023/04/02 08:07:32;;;;;;;11.07;2.80;;;;;;;-146.27;64.18;83872.97;5082914;28;20115;-70
2023/04/02 08:09:58;;;;;;;7.55;2.92;;;;;;;-146.27;66.27;83967.44;5082457;28;20124;-71
2023/04/02 08:12:23;;;;;;;5.90;3.03;;;;;;;-146.27;64.41;83846.84;5085885;28;20123;-71
2023/04/02 08:14:48;;;;;;;10.45;2.80;;;;;;;-146.27;64.90;83854.91;5081767;28;20382;-68
2023/04/02 08:17:14;;;;;;;5.75;3.03;;;;;;;-146.27;64.37;83808.69;5090447;28;20609;-70
2023/04/02 08:19:40;;;;;;;6.18;3.13;;;;;;;-146.27;63.55;83780.53;5090286;28;20077;-69
2023/04/02 08:22:05;;;;;;;6.65;2.38;;;;;;;-146.27;63.31;83808.69;5077020;28;20016;-69
2023/04/02 08:24:31;;;;;;;6.03;2.75;;;;;;;-146.27;62.79;83774.53;5079123;28;20099;-71
2023/04/02 08:26:56;;;;;;;5.60;2.47;;;;;;;-146.27;64.54;83933.28;5078862;28;20475;-69
2023/04/02 08:29:22;;;;;;;9.18;3.05;;;;;;;-146.27;64.28;83927.25;5076446;28;20082;-68
2023/04/02 08:31:47;;;;;;;6.38;2.88;;;;;;;-146.27;63.14;83810.69;5079156;28;20541;-69
2023/04/02 08:34:13;;;;;;;9.40;3.05;;;;;;;-146.27;61.27;83802.66;5084198;28;20055;-68
2023/04/02 08:36:42;;;;;;;3.63;2.47;;;;;;;-146.27;61.00;83826.75;5086390;28;20024;-68
2023/04/02 08:39:10;;;;;;;6.07;3.45;;;;;;;-146.27;62.72;83923.22;5087225;28;20036;-71
2023/04/02 08:41:44;;;;;;;4.40;2.50;;;;;;;-146.27;62.03;83887.06;5080323;28;20028;-70
2023/04/02 08:44:12;;;;;;;4.93;2.42;;;;;;;-146.27;60.03;83820.75;5073167;28;20103;-70
2023/04/02 08:46:52;;;;;;;4.25;2.45;;;;;;;-146.27;60.23;83870.97;5084889;28;20034;-70
2023/04/02 08:49:30;;;;;;;8.48;3.20;;;;;;;-146.27;60.74;83854.91;5086905;28;20103;-70
2023/04/02 08:51:56;;;;;;;10.23;3.15;;;;;;;-146.27;61.59;83822.75;5086944;28;20028;-70
2023/04/02 08:54:21;;;;;;;6.85;2.72;;;;;;;-146.27;59.70;83808.69;5083459;28;20512;-70
2023/04/02 08:57:06;;;;;;;4.93;2.83;;;;;;;-146.27;58.69;83742.38;5080492;28;20033;-69
2023/04/02 08:59:35;;;;;;;7.13;2.80;;;;;;;-146.27;61.10;83814.72;5072833;28;20035;-69
2023/04/02 09:02:09;;;;;;;5.35;2.78;;;;;;;-146.27;62.74;83877.00;5074568;28;20020;-69
2023/04/02 09:04:35;;;;;;;5.00;2.53;;;;;;;-146.27;59.92;83756.44;5076006;28;20067;-69
2023/04/02 09:07:01;;;;;;;5.30;2.65;;;;;;;-146.27;60.79;83790.59;5074501;28;20071;-69
2023/04/02 09:09:27;;;;;;;5.57;3.15;;;;;;;-146.27;61.54;83706.19;5090312;28;20044;-69
2023/04/02 09:12:00;;;;;;;6.43;2.53;;;;;;;-146.27;59.17;83662.00;5083747;28;20085;-72
2023/04/02 09:14:40;;;;;;;7.43;2.83;;;;;;;-146.27;56.04;83589.66;5082228;28;20035;-72
2023/04/02 09:17:18;;;;;;;5.13;2.20;;;;;;;-146.27;54.20;83696.16;5086240;28;20024;-72
2023/04/02 09:20:00;;;;;;;5.13;2.45;;;;;;;-146.27;56.51;83686.09;5079132;28;20103;-71
2023/04/02 09:22:29;;;;;;;7.43;2.17;;;;;;;-146.27;56.93;83637.88;5089755;28;20055;-71
2023/04/02 09:25:00;;;;;;;4.88;2.20;;;;;;;-146.27;56.70;83581.59;5088316;28;20032;-70
2023/04/02 09:27:28;;;;;;;7.38;2.25;;;;;;;-146.27;53.69;83629.84;5078971;28;20031;-71
2023/04/02 09:30:02;;;;;;;5.47;2.13;;;;;;;-146.27;51.84;83593.66;5079612;28;20016;-71
2023/04/02 09:32:51;;;;;;;5.85;2.42;;;;;;;-146.27;53.58;83615.78;5082211;28;20036;-71
2023/04/02 09:35:25;;;;;;;4.05;2.03;;;;;;;-146.27;53.43;83645.91;5078610;28;20020;-70
2023/04/02 09:38:09;;;;;;;4.18;2.10;;;;;;;-146.27;52.13;83573.56;5076671;28;20602;-70
2023/04/02 09:40:55;;;;;;;5.05;2.03;;;;;;;-146.27;52.98;83565.53;5078906;28;20087;-70
2023/04/02 09:43:26;;;;;;;7.10;2.47;;;;;;;-146.27;54.31;83577.59;5089595;28;20395;-70
2023/04/02 09:45:56;;;;;;;7.75;2.00;;;;;;;-146.27;52.98;83593.66;5094852;28;20444;-70
2023/04/02 09:48:31;;;;;;;4.80;2.25;;;;;;;-146.27;53.48;83549.47;5096040;28;20336;-71
2023/04/02 09:51:24;;;;;;;6.25;2.05;;;;;;;-146.27;51.90;83390.72;5095802;28;20039;-70
2023/04/02 09:53:50;;;;;;;8.88;2.60;;;;;;;-146.27;52.29;83360.59;5104950;28;20052;-71
2023/04/02 09:56:22;;;;;;;8.98;2.78;;;;;;;-146.27;50.25;83308.34;5093320;28;20012;-72
2023/04/02 09:59:04;;;;;;;6.53;1.70;;;;;;;-146.27;47.63;83215.91;5088290;28;20051;-71
2023/04/02 10:01:33;;;;;;;5.65;2.17;;;;;;;-146.27;44.46;83219.94;5087728;28;20029;-71
2023/04/02 10:04:00;;;;;;;3.05;2.08;;;;;;;-146.27;47.63;83139.56;5090076;28;20032;-70
2023/04/02 10:06:30;;;;;;;5.97;2.33;;;;;;;-146.27;46.69;83274.19;5110716;28;20022;-70
2023/04/02 10:08:56;;;;;;;4.32;2.05;;;;;;;-146.27;46.28;83223.94;5089561;28;20100;-71
2023/04/02 10:11:27;;;;;;;3.83;1.90;;;;;;;-146.27;45.93;83242.03;5088339;28;20383;-70
2023/04/02 10:13:57;;;;;;;3.25;2.10;;;;;;;-146.27;48.42;83324.41;5099309;28;20026;-70
2023/04/02 10:16:26;;;;;;;9.07;2.20;;;;;;;-146.27;47.85;83286.25;5090866;28;20052;-70
2023/04/02 10:18:59;;;;;;;7.43;3.00;;;;;;;-146.27;46.67;83292.28;5086390;28;20024;-71
2023/04/02 10:21:30;;;;;;;8.77;2.10;;;;;;;-146.27;46.41;83296.28;5083137;28;20472;-70
2023/04/02 10:23:58;;;;;;;5.95;2.60;;;;;;;-146.27;47.36;83246.06;5083768;28;20024;-70
2023/04/02 10:26:37;;;;;;;5.78;1.80;;;;;;;-146.27;46.27;83163.69;5094885;28;20119;-70
2023/04/02 10:29:34;;;;;;;3.33;1.88;;;;;;;-146.27;45.83;83103.41;5093940;28;20155;-71
2023/04/02 10:32:03;;;;;;;4.40;2.08;;;;;;;-146.27;44.77;83169.69;5085785;28;20035;-71
2023/04/02 10:34:57;;;;;;;5.85;1.73;;;;;;;-146.27;44.08;82958.75;5090450;28;20028;-71
2023/04/02 10:37:48;;;;;;;7.97;2.60;;;;;;;-146.27;44.96;83039.09;5077648;28;20372;-71
2023/04/02 10:40:16;;;;;;;7.82;2.55;;;;;;;-146.27;43.75;82942.66;5084564;28;20076;-71
2023/04/02 10:43:12;;;;;;;5.80;2.05;;;;;;;-146.27;43.62;83073.25;5093737;28;20035;-71
2023/04/02 10:45:44;;;;;;;6.50;1.70;;;;;;;-146.27;43.73;82858.28;5093369;28;20122;-71
2023/04/02 10:48:42;;;;;;;3.95;1.90;;;;;;;-146.27;44.64;82848.25;5089717;28;20031;-71
2023/04/02 10:51:41;;;;;;;6.32;1.75;;;;;;;-146.27;43.04;82745.78;5070605;28;20487;-70
2023/04/02 10:54:34;;;;;;;6.30;1.52;;;;;;;-146.27;41.12;82494.66;5093240;28;20024;-70
2023/04/02 10:57:26;;;;;;;3.33;1.43;;;;;;;-146.27;39.70;82713.66;5088823;28;20026;-71
2023/04/02 10:59:59;;;;;;;5.95;2.17;;;;;;;-146.27;40.34;82729.72;5076342;28;20376;-70
2023/04/02 11:02:33;;;;;;;6.25;1.83;;;;;;;-146.27;41.96;82659.41;5089977;28;20028;-70
2023/04/02 11:05:06;;;;;;;3.28;1.40;;;;;;;-146.27;40.19;82729.72;5086283;28;20034;-70
2023/04/02 11:07:48;;;;;;;6.57;1.17;;;;;;;-146.27;39.16;82661.41;5089459;28;20055;-70
2023/04/02 11:10:18;;;;;;;2.92;1.40;;;;;;;-146.27;39.14;82625.25;5079934;28;20467;-70
2023/04/02 11:13:04;;;;;;;7.70;1.80;;;;;;;-146.27;40.25;82536.84;5079247;28;20103;-70
2023/04/02 11:15:30;;;;;;;4.50;1.50;;;;;;;-146.27;40.23;82597.13;5086163;28;20119;-70
2023/04/02 11:17:56;;;;;;;4.25;1.38;;;;;;;-146.27;38.83;82476.59;5088353;28;20134;-70
2023/04/02 11:20:58;;;;;;;2.25;1.50;;;;;;;-146.27;38.51;82494.66;5085954;28;20169;-71
2023/04/02 11:23:30;;;;;;;4.32;1.52;;;;;;;-146.27;38.67;82571.00;5076368;28;20487;-70
2023/04/02 11:26:52;;;;;;;5.63;1.60;;;;;;;-146.27;39.84;82492.66;5089204;28;20361;-71
2023/04/02 11:29:27;;;;;;;3.20;1.20;;;;;;;-146.27;38.33;82321.91;5059671;28;20484;-70
2023/04/02 11:32:24;;;;;;;3.33;1.10;;;;;;;-146.27;38.08;82532.84;5062145;28;20480;-70
2023/04/02 11:34:49;;;;;;;3.67;1.73;;;;;;;-146.27;37.76;82337.97;5074306;28;20055;-71
2023/04/02 11:37:33;;;;;;;5.88;1.55;;;;;;;-146.27;37.11;82390.22;5084192;28;20025;-71
2023/04/02 11:40:00;;;;;;;3.88;1.33;;;;;;;-146.27;37.70;82346.03;5085268;28;20047;-71
2023/04/02 11:42:31;;;;;;;3.92;1.20;;;;;;;-146.27;39.21;82476.59;5080433;28;20064;-70
2023/04/02 11:45:23;;;;;;;3.15;1.40;;;;;;;-146.27;37.17;82434.41;5088735;28;20027;-71
2023/04/02 11:48:00;;;;;;;4.18;1.35;;;;;;;-146.27;38.12;82388.22;5083065;28;20020;-70